sensor_id;sensor_type;location;lat;lon;timestamp;P1;durP1;ratioP1;P2;durP2;ratioP2
19406;SDS011;9839;53.364;-1.204;2023-08-21T00:01:36;7.55;;;1.70;;
19406;SDS011;9839;53.364;-1.204;2023-08-21T00:04:01;4.10;;;1.40;;
19406;SDS011;9839;53.364;-1.204;2023-08-21T00:06:27;4.20;;;1.42;;
19406;SDS011;9839;53.364;-1.204;2023-08-21T00:08:53;4.63;;;1.80;;
19406;SDS011;9839;53.364;-1.204;2023-08-21T00:11:18;3.45;;;1.45;;
19406;SDS011;9839;53.364;-1.204;2023-08-21T00:13:43;2.97;;;1.25;;
19406;SDS011;9839;53.364;-1.204;2023-08-21T00:16:10;5.57;;;1.58;;
19406;SDS011;9839;53.364;-1.204;2023-08-21T00:18:36;3.72;;;1.50;;
19406;SDS011;9839;53.364;-1.204;2023-08-21T00:21:01;6.60;;;1.38;;
19406;SDS011;9839;53.364;-1.204;2023-08-21T00:23:27;4.22;;;1.40;;
19406;SDS011;9839;53.364;-1.204;2023-08-21T00:25:52;2.88;;;1.33;;
19406;SDS011;9839;53.364;-1.204;2023-08-21T00:28:17;5.18;;;1.45;;
19406;SDS011;9839;53.364;-1.204;2023-08-21T00:30:43;5.40;;;1.70;;
19406;SDS011;9839;53.364;-1.204;2023-08-21T00:33:08;5.32;;;1.50;;
19406;SDS011;9839;53.364;-1.204;2023-08-21T00:35:33;6.13;;;1.55;;
19406;SDS011;9839;53.364;-1.204;2023-08-21T00:37:59;6.82;;;1.50;;
19406;SDS011;9839;53.364;-1.204;2023-08-21T00:40:24;3.85;;;1.48;;
19406;SDS011;9839;53.364;-1.204;2023-08-21T00:42:50;16.83;;;2.88;;
19406;SDS011;9839;53.364;-1.204;2023-08-21T00:45:15;6.13;;;1.40;;
19406;SDS011;9839;53.364;-1.204;2023-08-21T00:47:41;3.60;;;1.40;;
19406;SDS011;9839;53.364;-1.204;2023-08-21T00:50:08;5.07;;;1.55;;
19406;SDS011;9839;53.364;-1.204;2023-08-21T00:52:34;6.45;;;1.95;;
19406;SDS011;9839;53.364;-1.204;2023-08-21T00:55:00;8.40;;;1.70;;
19406;SDS011;9839;53.364;-1.204;2023-08-21T00:57:26;11.63;;;1.80;;
19406;SDS011;9839;53.364;-1.204;2023-08-21T00:59:52;3.03;;;1.50;;
19406;SDS011;9839;53.364;-1.204;2023-08-21T01:02:17;2.92;;;1.50;;
19406;SDS011;9839;53.364;-1.204;2023-08-21T01:04:44;6.97;;;1.73;;
19406;SDS011;9839;53.364;-1.204;2023-08-21T01:07:09;5.55;;;1.60;;
19406;SDS011;9839;53.364;-1.204;2023-08-21T01:15:13;2.22;;;1.45;;
19406;SDS011;9839;53.364;-1.204;2023-08-21T01:17:39;2.88;;;1.63;;
19406;SDS011;9839;53.364;-1.204;2023-08-21T01:20:06;4.97;;;1.83;;
19406;SDS011;9839;53.364;-1.204;2023-08-21T01:22:37;12.57;;;2.72;;
19406;SDS011;9839;53.364;-1.204;2023-08-21T01:25:07;18.27;;;2.40;;
19406;SDS011;9839;53.364;-1.204;2023-08-21T01:27:34;7.22;;;1.85;;
19406;SDS011;9839;53.364;-1.204;2023-08-21T01:30:00;5.55;;;1.90;;
19406;SDS011;9839;53.364;-1.204;2023-08-21T01:32:27;4.53;;;1.67;;
19406;SDS011;9839;53.364;-1.204;2023-08-21T01:34:57;7.47;;;1.80;;
19406;SDS011;9839;53.364;-1.204;2023-08-21T01:37:24;5.72;;;1.80;;
19406;SDS011;9839;53.364;-1.204;2023-08-21T01:39:49;3.88;;;1.48;;
19406;SDS011;9839;53.364;-1.204;2023-08-21T01:42:15;8.52;;;1.55;;
19406;SDS011;9839;53.364;-1.204;2023-08-21T01:44:40;9.77;;;2.15;;
19406;SDS011;9839;53.364;-1.204;2023-08-21T01:47:06;7.50;;;1.80;;
19406;SDS011;9839;53.364;-1.204;2023-08-21T01:49:31;3.78;;;1.80;;
19406;SDS011;9839;53.364;-1.204;2023-08-21T01:51:57;4.78;;;1.67;;
19406;SDS011;9839;53.364;-1.204;2023-08-21T01:54:22;7.43;;;1.83;;
19406;SDS011;9839;53.364;-1.204;2023-08-21T01:56:48;7.68;;;1.95;;
19406;SDS011;9839;53.364;-1.204;2023-08-21T01:59:13;3.30;;;1.48;;
19406;SDS011;9839;53.364;-1.204;2023-08-21T02:01:38;6.43;;;1.98;;
19406;SDS011;9839;53.364;-1.204;2023-08-21T02:04:04;7.72;;;1.77;;
19406;SDS011;9839;53.364;-1.204;2023-08-21T02:06:29;3.78;;;1.98;;
19406;SDS011;9839;53.364;-1.204;2023-08-21T02:08:54;7.88;;;2.00;;
19406;SDS011;9839;53.364;-1.204;2023-08-21T02:11:20;9.73;;;2.00;;
19406;SDS011;9839;53.364;-1.204;2023-08-21T02:13:45;7.85;;;1.98;;
19406;SDS011;9839;53.364;-1.204;2023-08-21T02:16:10;8.85;;;2.13;;
19406;SDS011;9839;53.364;-1.204;2023-08-21T02:18:36;5.50;;;2.00;;
19406;SDS011;9839;53.364;-1.204;2023-08-21T02:21:01;5.63;;;1.63;;
19406;SDS011;9839;53.364;-1.204;2023-08-21T02:23:27;6.55;;;1.80;;
19406;SDS011;9839;53.364;-1.204;2023-08-21T02:25:53;6.13;;;1.73;;
19406;SDS011;9839;53.364;-1.204;2023-08-21T02:28:19;9.32;;;1.92;;
19406;SDS011;9839;53.364;-1.204;2023-08-21T02:30:44;7.22;;;2.00;;
19406;SDS011;9839;53.364;-1.204;2023-08-21T02:33:10;5.65;;;1.73;;
19406;SDS011;9839;53.364;-1.204;2023-08-21T02:35:35;4.97;;;1.40;;
19406;SDS011;9839;53.364;-1.204;2023-08-21T02:38:01;4.18;;;1.25;;
19406;SDS011;9839;53.364;-1.204;2023-08-21T02:40:26;6.88;;;1.92;;
19406;SDS011;9839;53.364;-1.204;2023-08-21T02:42:51;2.97;;;1.92;;
19406;SDS011;9839;53.364;-1.204;2023-08-21T02:45:17;7.57;;;1.75;;
19406;SDS011;9839;53.364;-1.204;2023-08-21T02:47:45;5.22;;;1.45;;
19406;SDS011;9839;53.364;-1.204;2023-08-21T02:50:10;6.05;;;1.90;;
19406;SDS011;9839;53.364;-1.204;2023-08-21T02:52:36;6.63;;;1.55;;
19406;SDS011;9839;53.364;-1.204;2023-08-21T02:55:02;2.22;;;1.40;;
19406;SDS011;9839;53.364;-1.204;2023-08-21T02:57:28;4.60;;;1.55;;
19406;SDS011;9839;53.364;-1.204;2023-08-21T02:59:54;10.75;;;1.77;;
19406;SDS011;9839;53.364;-1.204;2023-08-21T03:02:20;7.13;;;1.80;;
19406;SDS011;9839;53.364;-1.204;2023-08-21T03:04:45;6.13;;;1.60;;
19406;SDS011;9839;53.364;-1.204;2023-08-21T03:07:11;7.38;;;1.50;;
19406;SDS011;9839;53.364;-1.204;2023-08-21T03:09:37;8.35;;;1.77;;
19406;SDS011;9839;53.364;-1.204;2023-08-21T03:12:02;3.92;;;1.25;;
19406;SDS011;9839;53.364;-1.204;2023-08-21T03:14:28;5.60;;;1.30;;
19406;SDS011;9839;53.364;-1.204;2023-08-21T03:16:53;6.32;;;2.03;;
19406;SDS011;9839;53.364;-1.204;2023-08-21T03:19:19;5.45;;;1.73;;
19406;SDS011;9839;53.364;-1.204;2023-08-21T03:21:44;2.20;;;1.23;;
19406;SDS011;9839;53.364;-1.204;2023-08-21T03:24:09;4.85;;;1.65;;
19406;SDS011;9839;53.364;-1.204;2023-08-21T03:26:35;6.50;;;1.52;;
19406;SDS011;9839;53.364;-1.204;2023-08-21T03:29:00;2.85;;;1.10;;
19406;SDS011;9839;53.364;-1.204;2023-08-21T03:31:26;7.53;;;1.60;;
19406;SDS011;9839;53.364;-1.204;2023-08-21T03:33:51;3.55;;;1.10;;
19406;SDS011;9839;53.364;-1.204;2023-08-21T03:36:17;4.97;;;1.48;;
19406;SDS011;9839;53.364;-1.204;2023-08-21T03:38:42;7.07;;;1.85;;
19406;SDS011;9839;53.364;-1.204;2023-08-21T03:41:08;6.78;;;1.90;;
19406;SDS011;9839;53.364;-1.204;2023-08-21T03:43:33;7.18;;;1.80;;
19406;SDS011;9839;53.364;-1.204;2023-08-21T03:45:58;8.00;;;2.13;;
19406;SDS011;9839;53.364;-1.204;2023-08-21T03:48:24;5.78;;;1.52;;
19406;SDS011;9839;53.364;-1.204;2023-08-21T03:50:49;6.07;;;1.65;;
19406;SDS011;9839;53.364;-1.204;2023-08-21T03:53:15;5.85;;;1.65;;
19406;SDS011;9839;53.364;-1.204;2023-08-21T03:55:40;10.25;;;1.85;;
19406;SDS011;9839;53.364;-1.204;2023-08-21T03:58:06;8.77;;;1.90;;
19406;SDS011;9839;53.364;-1.204;2023-08-21T04:00:31;5.85;;;1.60;;
19406;SDS011;9839;53.364;-1.204;2023-08-21T04:02:57;9.38;;;2.25;;
19406;SDS011;9839;53.364;-1.204;2023-08-21T04:05:22;5.18;;;2.13;;
19406;SDS011;9839;53.364;-1.204;2023-08-21T04:07:48;6.03;;;2.00;;
19406;SDS011;9839;53.364;-1.204;2023-08-21T04:10:13;7.93;;;2.10;;
19406;SDS011;9839;53.364;-1.204;2023-08-21T04:12:39;8.75;;;2.10;;
19406;SDS011;9839;53.364;-1.204;2023-08-21T04:15:04;7.72;;;2.13;;
19406;SDS011;9839;53.364;-1.204;2023-08-21T04:17:31;6.13;;;1.70;;
19406;SDS011;9839;53.364;-1.204;2023-08-21T04:19:56;8.27;;;2.30;;
19406;SDS011;9839;53.364;-1.204;2023-08-21T04:22:22;10.48;;;2.13;;
19406;SDS011;9839;53.364;-1.204;2023-08-21T04:24:47;9.13;;;2.25;;
19406;SDS011;9839;53.364;-1.204;2023-08-21T04:27:13;11.13;;;2.40;;
19406;SDS011;9839;53.364;-1.204;2023-08-21T04:29:38;6.25;;;2.22;;
19406;SDS011;9839;53.364;-1.204;2023-08-21T04:32:04;4.80;;;1.85;;
19406;SDS011;9839;53.364;-1.204;2023-08-21T04:34:33;3.88;;;1.67;;
19406;SDS011;9839;53.364;-1.204;2023-08-21T04:36:59;5.32;;;1.60;;
19406;SDS011;9839;53.364;-1.204;2023-08-21T04:39:25;8.48;;;1.70;;
19406;SDS011;9839;53.364;-1.204;2023-08-21T04:41:50;10.65;;;2.00;;
19406;SDS011;9839;53.364;-1.204;2023-08-21T04:44:16;9.02;;;1.70;;
19406;SDS011;9839;53.364;-1.204;2023-08-21T04:46:41;6.57;;;1.73;;
19406;SDS011;9839;53.364;-1.204;2023-08-21T04:49:06;10.60;;;2.00;;
19406;SDS011;9839;53.364;-1.204;2023-08-21T04:51:32;6.05;;;1.60;;
19406;SDS011;9839;53.364;-1.204;2023-08-21T04:53:57;8.70;;;1.92;;
19406;SDS011;9839;53.364;-1.204;2023-08-21T04:56:24;3.63;;;1.60;;
19406;SDS011;9839;53.364;-1.204;2023-08-21T04:58:50;4.18;;;1.90;;
19406;SDS011;9839;53.364;-1.204;2023-08-21T05:01:15;8.63;;;1.55;;
19406;SDS011;9839;53.364;-1.204;2023-08-21T05:03:40;4.05;;;1.40;;
19406;SDS011;9839;53.364;-1.204;2023-08-21T05:06:06;12.40;;;1.92;;
19406;SDS011;9839;53.364;-1.204;2023-08-21T05:08:31;9.43;;;1.92;;
19406;SDS011;9839;53.364;-1.204;2023-08-21T05:10:57;5.05;;;1.90;;
19406;SDS011;9839;53.364;-1.204;2023-08-21T05:13:23;8.48;;;1.92;;
19406;SDS011;9839;53.364;-1.204;2023-08-21T05:15:53;8.90;;;2.08;;
19406;SDS011;9839;53.364;-1.204;2023-08-21T05:18:19;9.95;;;3.30;;
19406;SDS011;9839;53.364;-1.204;2023-08-21T05:20:46;8.00;;;1.88;;
19406;SDS011;9839;53.364;-1.204;2023-08-21T05:23:12;14.93;;;2.20;;
19406;SDS011;9839;53.364;-1.204;2023-08-21T05:25:37;11.02;;;2.40;;
19406;SDS011;9839;53.364;-1.204;2023-08-21T05:28:04;7.28;;;1.92;;
19406;SDS011;9839;53.364;-1.204;2023-08-21T05:30:29;5.65;;;1.58;;
19406;SDS011;9839;53.364;-1.204;2023-08-21T05:32:55;8.27;;;1.90;;
19406;SDS011;9839;53.364;-1.204;2023-08-21T05:35:20;7.85;;;1.90;;
19406;SDS011;9839;53.364;-1.204;2023-08-21T05:37:46;9.02;;;1.83;;
19406;SDS011;9839;53.364;-1.204;2023-08-21T05:40:11;5.68;;;2.10;;
19406;SDS011;9839;53.364;-1.204;2023-08-21T05:42:37;9.05;;;1.85;;
19406;SDS011;9839;53.364;-1.204;2023-08-21T05:45:03;6.07;;;2.10;;
19406;SDS011;9839;53.364;-1.204;2023-08-21T05:47:29;9.48;;;2.30;;
19406;SDS011;9839;53.364;-1.204;2023-08-21T05:49:54;6.07;;;1.83;;
19406;SDS011;9839;53.364;-1.204;2023-08-21T05:52:20;8.80;;;2.03;;
19406;SDS011;9839;53.364;-1.204;2023-08-21T05:54:47;8.18;;;2.05;;
19406;SDS011;9839;53.364;-1.204;2023-08-21T05:57:12;6.63;;;2.28;;
19406;SDS011;9839;53.364;-1.204;2023-08-21T05:59:42;8.38;;;2.42;;
19406;SDS011;9839;53.364;-1.204;2023-08-21T06:02:09;8.10;;;2.13;;
19406;SDS011;9839;53.364;-1.204;2023-08-21T06:04:34;9.75;;;2.10;;
19406;SDS011;9839;53.364;-1.204;2023-08-21T06:06:59;6.45;;;2.33;;
19406;SDS011;9839;53.364;-1.204;2023-08-21T06:09:25;7.88;;;2.33;;
19406;SDS011;9839;53.364;-1.204;2023-08-21T06:11:50;7.60;;;1.98;;
19406;SDS011;9839;53.364;-1.204;2023-08-21T06:14:15;6.95;;;2.00;;
19406;SDS011;9839;53.364;-1.204;2023-08-21T06:16:41;13.35;;;1.90;;
19406;SDS011;9839;53.364;-1.204;2023-08-21T06:19:06;6.88;;;1.77;;
19406;SDS011;9839;53.364;-1.204;2023-08-21T06:21:32;8.60;;;2.30;;
19406;SDS011;9839;53.364;-1.204;2023-08-21T06:23:57;8.55;;;1.73;;
19406;SDS011;9839;53.364;-1.204;2023-08-21T06:26:22;11.38;;;2.13;;
19406;SDS011;9839;53.364;-1.204;2023-08-21T06:28:48;4.68;;;1.88;;
19406;SDS011;9839;53.364;-1.204;2023-08-21T06:31:13;6.95;;;1.63;;
19406;SDS011;9839;53.364;-1.204;2023-08-21T06:33:38;9.25;;;1.85;;
19406;SDS011;9839;53.364;-1.204;2023-08-21T06:36:04;9.65;;;1.80;;
19406;SDS011;9839;53.364;-1.204;2023-08-21T06:38:29;12.00;;;1.88;;
19406;SDS011;9839;53.364;-1.204;2023-08-21T06:40:55;5.13;;;1.42;;
19406;SDS011;9839;53.364;-1.204;2023-08-21T06:43:20;9.00;;;1.70;;
19406;SDS011;9839;53.364;-1.204;2023-08-21T06:45:46;6.63;;;1.40;;
19406;SDS011;9839;53.364;-1.204;2023-08-21T06:48:12;5.30;;;1.70;;
19406;SDS011;9839;53.364;-1.204;2023-08-21T06:50:37;10.52;;;2.05;;
19406;SDS011;9839;53.364;-1.204;2023-08-21T06:53:02;4.97;;;1.27;;
19406;SDS011;9839;53.364;-1.204;2023-08-21T06:55:28;5.88;;;1.40;;
19406;SDS011;9839;53.364;-1.204;2023-08-21T06:57:53;4.30;;;1.77;;
19406;SDS011;9839;53.364;-1.204;2023-08-21T07:00:19;6.57;;;1.75;;
19406;SDS011;9839;53.364;-1.204;2023-08-21T07:02:44;4.72;;;1.60;;
19406;SDS011;9839;53.364;-1.204;2023-08-21T07:05:09;10.40;;;1.60;;
19406;SDS011;9839;53.364;-1.204;2023-08-21T07:07:35;7.15;;;1.77;;
19406;SDS011;9839;53.364;-1.204;2023-08-21T07:10:00;14.10;;;1.90;;
19406;SDS011;9839;53.364;-1.204;2023-08-21T07:12:26;8.55;;;1.55;;
19406;SDS011;9839;53.364;-1.204;2023-08-21T07:14:51;9.93;;;2.17;;
19406;SDS011;9839;53.364;-1.204;2023-08-21T07:17:16;4.68;;;1.70;;
19406;SDS011;9839;53.364;-1.204;2023-08-21T07:19:42;5.70;;;1.92;;
19406;SDS011;9839;53.364;-1.204;2023-08-21T07:22:07;6.32;;;1.65;;
19406;SDS011;9839;53.364;-1.204;2023-08-21T07:24:33;13.52;;;1.60;;
19406;SDS011;9839;53.364;-1.204;2023-08-21T07:26:58;4.07;;;1.20;;
19406;SDS011;9839;53.364;-1.204;2023-08-21T07:29:23;9.57;;;1.90;;
19406;SDS011;9839;53.364;-1.204;2023-08-21T07:31:49;8.57;;;2.05;;
19406;SDS011;9839;53.364;-1.204;2023-08-21T07:34:14;8.00;;;1.90;;
19406;SDS011;9839;53.364;-1.204;2023-08-21T07:36:40;8.32;;;1.48;;
19406;SDS011;9839;53.364;-1.204;2023-08-21T07:39:05;6.13;;;1.65;;
19406;SDS011;9839;53.364;-1.204;2023-08-21T07:41:30;4.25;;;1.25;;
19406;SDS011;9839;53.364;-1.204;2023-08-21T07:43:56;14.38;;;1.60;;
19406;SDS011;9839;53.364;-1.204;2023-08-21T07:46:21;8.18;;;1.52;;
19406;SDS011;9839;53.364;-1.204;2023-08-21T07:48:47;6.78;;;1.60;;
19406;SDS011;9839;53.364;-1.204;2023-08-21T07:51:12;6.97;;;1.45;;
19406;SDS011;9839;53.364;-1.204;2023-08-21T07:53:38;6.00;;;1.63;;
19406;SDS011;9839;53.364;-1.204;2023-08-21T07:56:03;9.43;;;1.67;;
19406;SDS011;9839;53.364;-1.204;2023-08-21T07:58:29;9.30;;;1.60;;
19406;SDS011;9839;53.364;-1.204;2023-08-21T08:00:55;7.93;;;1.30;;
19406;SDS011;9839;53.364;-1.204;2023-08-21T08:03:21;7.05;;;1.42;;
19406;SDS011;9839;53.364;-1.204;2023-08-21T08:05:46;5.07;;;2.08;;
19406;SDS011;9839;53.364;-1.204;2023-08-21T08:08:11;6.80;;;1.70;;
19406;SDS011;9839;53.364;-1.204;2023-08-21T08:10:40;8.82;;;1.55;;
19406;SDS011;9839;53.364;-1.204;2023-08-21T08:13:06;6.60;;;1.75;;
19406;SDS011;9839;53.364;-1.204;2023-08-21T08:15:32;4.65;;;1.40;;
19406;SDS011;9839;53.364;-1.204;2023-08-21T08:17:59;7.60;;;1.63;;
19406;SDS011;9839;53.364;-1.204;2023-08-21T08:20:24;5.53;;;1.30;;
19406;SDS011;9839;53.364;-1.204;2023-08-21T08:22:50;5.03;;;1.38;;
19406;SDS011;9839;53.364;-1.204;2023-08-21T08:25:15;3.75;;;1.42;;
19406;SDS011;9839;53.364;-1.204;2023-08-21T08:27:41;8.95;;;1.65;;
19406;SDS011;9839;53.364;-1.204;2023-08-21T08:30:08;6.57;;;1.30;;
19406;SDS011;9839;53.364;-1.204;2023-08-21T08:32:34;15.95;;;1.75;;
19406;SDS011;9839;53.364;-1.204;2023-08-21T08:34:59;4.03;;;1.00;;
19406;SDS011;9839;53.364;-1.204;2023-08-21T08:37:24;3.60;;;0.95;;
19406;SDS011;9839;53.364;-1.204;2023-08-21T08:39:50;3.25;;;1.10;;
19406;SDS011;9839;53.364;-1.204;2023-08-21T08:42:15;7.07;;;1.30;;
19406;SDS011;9839;53.364;-1.204;2023-08-21T08:44:41;5.38;;;1.38;;
19406;SDS011;9839;53.364;-1.204;2023-08-21T08:47:07;5.85;;;1.17;;
19406;SDS011;9839;53.364;-1.204;2023-08-21T08:49:33;6.97;;;1.00;;
19406;SDS011;9839;53.364;-1.204;2023-08-21T08:51:59;7.93;;;1.90;;
19406;SDS011;9839;53.364;-1.204;2023-08-21T08:54:25;5.88;;;1.20;;
19406;SDS011;9839;53.364;-1.204;2023-08-21T08:56:52;11.13;;;1.75;;
19406;SDS011;9839;53.364;-1.204;2023-08-21T08:59:18;4.22;;;1.17;;
19406;SDS011;9839;53.364;-1.204;2023-08-21T09:01:43;7.85;;;1.45;;
19406;SDS011;9839;53.364;-1.204;2023-08-21T09:04:09;4.50;;;1.33;;
19406;SDS011;9839;53.364;-1.204;2023-08-21T09:06:35;9.30;;;1.42;;
19406;SDS011;9839;53.364;-1.204;2023-08-21T09:09:00;6.35;;;1.73;;
19406;SDS011;9839;53.364;-1.204;2023-08-21T09:11:26;4.85;;;1.50;;
19406;SDS011;9839;53.364;-1.204;2023-08-21T09:13:52;6.55;;;1.38;;
19406;SDS011;9839;53.364;-1.204;2023-08-21T09:16:19;4.72;;;1.67;;
19406;SDS011;9839;53.364;-1.204;2023-08-21T09:18:52;3.88;;;1.25;;
19406;SDS011;9839;53.364;-1.204;2023-08-21T09:21:19;7.03;;;1.25;;
19406;SDS011;9839;53.364;-1.204;2023-08-21T09:23:45;6.22;;;1.25;;
19406;SDS011;9839;53.364;-1.204;2023-08-21T09:26:18;7.10;;;1.35;;
19406;SDS011;9839;53.364;-1.204;2023-08-21T09:28:49;6.65;;;1.65;;
19406;SDS011;9839;53.364;-1.204;2023-08-21T09:31:16;7.43;;;1.40;;
19406;SDS011;9839;53.364;-1.204;2023-08-21T09:33:42;6.28;;;1.77;;
19406;SDS011;9839;53.364;-1.204;2023-08-21T09:36:11;5.38;;;1.48;;
19406;SDS011;9839;53.364;-1.204;2023-08-21T09:38:39;5.97;;;1.55;;
19406;SDS011;9839;53.364;-1.204;2023-08-21T09:41:05;6.28;;;1.67;;
19406;SDS011;9839;53.364;-1.204;2023-08-21T09:43:31;10.05;;;1.90;;
19406;SDS011;9839;53.364;-1.204;2023-08-21T09:45:56;7.20;;;1.80;;
19406;SDS011;9839;53.364;-1.204;2023-08-21T09:48:22;4.55;;;2.20;;
19406;SDS011;9839;53.364;-1.204;2023-08-21T09:50:54;5.18;;;1.50;;
19406;SDS011;9839;53.364;-1.204;2023-08-21T09:53:21;7.10;;;1.77;;
19406;SDS011;9839;53.364;-1.204;2023-08-21T09:55:53;4.20;;;1.75;;
19406;SDS011;9839;53.364;-1.204;2023-08-21T09:58:19;3.75;;;1.70;;
19406;SDS011;9839;53.364;-1.204;2023-08-21T10:00:45;5.80;;;1.92;;
19406;SDS011;9839;53.364;-1.204;2023-08-21T10:03:13;9.75;;;2.45;;
19406;SDS011;9839;53.364;-1.204;2023-08-21T10:05:43;6.03;;;1.70;;
19406;SDS011;9839;53.364;-1.204;2023-08-21T10:08:08;5.18;;;1.60;;
19406;SDS011;9839;53.364;-1.204;2023-08-21T10:10:35;5.63;;;1.45;;
19406;SDS011;9839;53.364;-1.204;2023-08-21T10:13:02;8.05;;;1.83;;
19406;SDS011;9839;53.364;-1.204;2023-08-21T10:15:28;8.25;;;1.83;;
19406;SDS011;9839;53.364;-1.204;2023-08-21T10:17:54;6.03;;;2.08;;
19406;SDS011;9839;53.364;-1.204;2023-08-21T10:20:23;7.57;;;2.15;;
19406;SDS011;9839;53.364;-1.204;2023-08-21T10:22:52;6.25;;;1.60;;
19406;SDS011;9839;53.364;-1.204;2023-08-21T10:25:22;7.68;;;1.63;;
19406;SDS011;9839;53.364;-1.204;2023-08-21T10:27:57;7.10;;;1.70;;
19406;SDS011;9839;53.364;-1.204;2023-08-21T10:30:26;8.77;;;1.88;;
19406;SDS011;9839;53.364;-1.204;2023-08-21T10:32:53;5.40;;;1.40;;
19406;SDS011;9839;53.364;-1.204;2023-08-21T10:35:23;8.57;;;1.73;;
19406;SDS011;9839;53.364;-1.204;2023-08-21T10:40:38;7.72;;;1.85;;
19406;SDS011;9839;53.364;-1.204;2023-08-21T10:43:04;3.67;;;1.75;;
19406;SDS011;9839;53.364;-1.204;2023-08-21T10:45:30;4.88;;;1.58;;
19406;SDS011;9839;53.364;-1.204;2023-08-21T10:47:58;4.43;;;1.42;;
19406;SDS011;9839;53.364;-1.204;2023-08-21T10:50:24;5.15;;;1.70;;
19406;SDS011;9839;53.364;-1.204;2023-08-21T10:52:51;3.67;;;1.52;;
19406;SDS011;9839;53.364;-1.204;2023-08-21T10:55:19;6.03;;;1.55;;
19406;SDS011;9839;53.364;-1.204;2023-08-21T10:57:48;3.63;;;1.30;;
19406;SDS011;9839;53.364;-1.204;2023-08-21T11:00:15;3.72;;;1.50;;
19406;SDS011;9839;53.364;-1.204;2023-08-21T11:02:48;3.63;;;1.25;;
19406;SDS011;9839;53.364;-1.204;2023-08-21T11:05:15;3.50;;;1.60;;
19406;SDS011;9839;53.364;-1.204;2023-08-21T11:07:42;4.60;;;1.45;;
19406;SDS011;9839;53.364;-1.204;2023-08-21T11:10:12;6.70;;;1.40;;
19406;SDS011;9839;53.364;-1.204;2023-08-21T11:12:47;4.57;;;1.13;;
19406;SDS011;9839;53.364;-1.204;2023-08-21T11:15:17;5.30;;;1.33;;
19406;SDS011;9839;53.364;-1.204;2023-08-21T11:17:50;4.68;;;1.10;;
19406;SDS011;9839;53.364;-1.204;2023-08-21T11:20:22;4.15;;;1.17;;
19406;SDS011;9839;53.364;-1.204;2023-08-21T11:22:48;5.45;;;1.48;;
19406;SDS011;9839;53.364;-1.204;2023-08-21T11:25:14;6.65;;;1.35;;
19406;SDS011;9839;53.364;-1.204;2023-08-21T11:27:41;3.83;;;1.45;;
19406;SDS011;9839;53.364;-1.204;2023-08-21T11:30:06;2.90;;;1.08;;
19406;SDS011;9839;53.364;-1.204;2023-08-21T11:32:32;5.88;;;1.38;;
19406;SDS011;9839;53.364;-1.204;2023-08-21T11:34:57;2.03;;;1.30;;
19406;SDS011;9839;53.364;-1.204;2023-08-21T11:37:24;5.40;;;1.17;;
19406;SDS011;9839;53.364;-1.204;2023-08-21T11:39:52;4.88;;;1.10;;
19406;SDS011;9839;53.364;-1.204;2023-08-21T11:42:19;2.42;;;1.10;;
19406;SDS011;9839;53.364;-1.204;2023-08-21T11:44:52;3.63;;;1.42;;
19406;SDS011;9839;53.364;-1.204;2023-08-21T11:47:18;5.63;;;1.48;;
19406;SDS011;9839;53.364;-1.204;2023-08-21T11:49:45;2.33;;;0.90;;
19406;SDS011;9839;53.364;-1.204;2023-08-21T11:52:13;5.28;;;1.20;;
19406;SDS011;9839;53.364;-1.204;2023-08-21T11:54:39;5.57;;;1.20;;
19406;SDS011;9839;53.364;-1.204;2023-08-21T11:57:12;4.07;;;1.10;;
19406;SDS011;9839;53.364;-1.204;2023-08-21T11:59:38;3.25;;;1.10;;
19406;SDS011;9839;53.364;-1.204;2023-08-21T12:02:10;3.47;;;1.02;;
19406;SDS011;9839;53.364;-1.204;2023-08-21T12:04:39;3.33;;;1.00;;
19406;SDS011;9839;53.364;-1.204;2023-08-21T12:07:05;3.70;;;1.00;;
19406;SDS011;9839;53.364;-1.204;2023-08-21T12:09:30;3.85;;;1.00;;
19406;SDS011;9839;53.364;-1.204;2023-08-21T12:11:56;2.97;;;1.00;;
19406;SDS011;9839;53.364;-1.204;2023-08-21T12:14:22;2.00;;;0.90;;
19406;SDS011;9839;53.364;-1.204;2023-08-21T12:16:48;3.38;;;0.90;;
19406;SDS011;9839;53.364;-1.204;2023-08-21T12:19:13;3.58;;;1.20;;
19406;SDS011;9839;53.364;-1.204;2023-08-21T12:21:39;3.20;;;0.85;;
19406;SDS011;9839;53.364;-1.204;2023-08-21T12:24:05;2.78;;;1.08;;
19406;SDS011;9839;53.364;-1.204;2023-08-21T12:26:31;4.25;;;1.02;;
19406;SDS011;9839;53.364;-1.204;2023-08-21T12:28:57;6.85;;;0.90;;
19406;SDS011;9839;53.364;-1.204;2023-08-21T12:31:22;2.80;;;0.90;;
19406;SDS011;9839;53.364;-1.204;2023-08-21T12:33:48;1.73;;;0.90;;
19406;SDS011;9839;53.364;-1.204;2023-08-21T12:36:14;5.15;;;1.55;;
19406;SDS011;9839;53.364;-1.204;2023-08-21T12:38:39;1.77;;;0.95;;
19406;SDS011;9839;53.364;-1.204;2023-08-21T12:41:05;3.30;;;1.10;;
19406;SDS011;9839;53.364;-1.204;2023-08-21T12:43:30;1.35;;;0.90;;
19406;SDS011;9839;53.364;-1.204;2023-08-21T12:45:56;2.25;;;1.00;;
19406;SDS011;9839;53.364;-1.204;2023-08-21T12:48:21;3.35;;;1.02;;
19406;SDS011;9839;53.364;-1.204;2023-08-21T12:50:47;2.78;;;1.08;;
19406;SDS011;9839;53.364;-1.204;2023-08-21T12:53:12;0.90;;;0.73;;
19406;SDS011;9839;53.364;-1.204;2023-08-21T12:55:37;1.23;;;1.13;;
19406;SDS011;9839;53.364;-1.204;2023-08-21T12:58:03;2.05;;;1.08;;
19406;SDS011;9839;53.364;-1.204;2023-08-21T13:00:28;4.88;;;0.90;;
19406;SDS011;9839;53.364;-1.204;2023-08-21T13:02:54;2.05;;;0.95;;
19406;SDS011;9839;53.364;-1.204;2023-08-21T13:05:19;3.47;;;1.10;;
19406;SDS011;9839;53.364;-1.204;2023-08-21T13:07:44;2.42;;;1.05;;
19406;SDS011;9839;53.364;-1.204;2023-08-21T13:10:10;4.47;;;1.10;;
19406;SDS011;9839;53.364;-1.204;2023-08-21T13:12:36;4.30;;;1.00;;
19406;SDS011;9839;53.364;-1.204;2023-08-21T13:15:01;2.45;;;1.00;;
19406;SDS011;9839;53.364;-1.204;2023-08-21T13:17:27;2.70;;;1.30;;
19406;SDS011;9839;53.364;-1.204;2023-08-21T13:19:53;1.77;;;1.10;;
19406;SDS011;9839;53.364;-1.204;2023-08-21T13:22:18;3.22;;;1.60;;
19406;SDS011;9839;53.364;-1.204;2023-08-21T13:24:44;2.20;;;1.27;;
19406;SDS011;9839;53.364;-1.204;2023-08-21T13:27:09;1.38;;;1.08;;
19406;SDS011;9839;53.364;-1.204;2023-08-21T13:29:35;3.50;;;1.05;;
19406;SDS011;9839;53.364;-1.204;2023-08-21T13:32:00;3.85;;;1.65;;
19406;SDS011;9839;53.364;-1.204;2023-08-21T13:34:25;3.38;;;2.08;;
19406;SDS011;9839;53.364;-1.204;2023-08-21T13:36:51;2.35;;;1.48;;
19406;SDS011;9839;53.364;-1.204;2023-08-21T13:39:16;6.05;;;2.05;;
19406;SDS011;9839;53.364;-1.204;2023-08-21T13:41:42;3.15;;;2.08;;
19406;SDS011;9839;53.364;-1.204;2023-08-21T13:44:07;7.32;;;2.50;;
19406;SDS011;9839;53.364;-1.204;2023-08-21T13:46:35;8.13;;;2.63;;
19406;SDS011;9839;53.364;-1.204;2023-08-21T13:49:01;8.02;;;2.15;;
19406;SDS011;9839;53.364;-1.204;2023-08-21T13:51:27;4.65;;;2.05;;
19406;SDS011;9839;53.364;-1.204;2023-08-21T13:53:52;3.83;;;1.80;;
19406;SDS011;9839;53.364;-1.204;2023-08-21T13:56:17;3.15;;;1.77;;
19406;SDS011;9839;53.364;-1.204;2023-08-21T13:58:43;2.50;;;1.55;;
19406;SDS011;9839;53.364;-1.204;2023-08-21T14:01:08;3.55;;;1.63;;
19406;SDS011;9839;53.364;-1.204;2023-08-21T14:03:34;3.88;;;1.50;;
19406;SDS011;9839;53.364;-1.204;2023-08-21T14:05:59;4.15;;;1.85;;
19406;SDS011;9839;53.364;-1.204;2023-08-21T14:08:25;6.20;;;1.80;;
19406;SDS011;9839;53.364;-1.204;2023-08-21T14:10:50;4.35;;;1.90;;
19406;SDS011;9839;53.364;-1.204;2023-08-21T14:13:15;3.58;;;1.80;;
19406;SDS011;9839;53.364;-1.204;2023-08-21T14:15:41;2.60;;;1.75;;
19406;SDS011;9839;53.364;-1.204;2023-08-21T14:18:06;3.50;;;1.70;;
19406;SDS011;9839;53.364;-1.204;2023-08-21T14:20:32;2.67;;;1.65;;
19406;SDS011;9839;53.364;-1.204;2023-08-21T14:22:57;7.05;;;2.15;;
19406;SDS011;9839;53.364;-1.204;2023-08-21T14:25:23;6.22;;;3.50;;
19406;SDS011;9839;53.364;-1.204;2023-08-21T14:27:48;3.53;;;2.53;;
19406;SDS011;9839;53.364;-1.204;2023-08-21T14:30:16;2.42;;;1.48;;
19406;SDS011;9839;53.364;-1.204;2023-08-21T14:32:41;1.95;;;1.58;;
19406;SDS011;9839;53.364;-1.204;2023-08-21T14:35:07;5.22;;;1.88;;
19406;SDS011;9839;53.364;-1.204;2023-08-21T14:37:33;2.30;;;1.50;;
19406;SDS011;9839;53.364;-1.204;2023-08-21T14:39:58;5.20;;;1.40;;
19406;SDS011;9839;53.364;-1.204;2023-08-21T14:42:24;3.65;;;1.58;;
19406;SDS011;9839;53.364;-1.204;2023-08-21T14:44:49;5.85;;;1.55;;
19406;SDS011;9839;53.364;-1.204;2023-08-21T14:47:15;4.72;;;1.63;;
19406;SDS011;9839;53.364;-1.204;2023-08-21T14:49:40;5.00;;;1.75;;